createdAt,value
2022-11-22T00:00:44.145Z,30.70
2022-11-22T00:03:11.204Z,30.00
2022-11-22T00:05:38.382Z,30.83
2022-11-22T00:08:06.359Z,30.87
2022-11-22T00:10:34.057Z,30.20
2022-11-22T00:13:02.088Z,34.50
2022-11-22T00:15:29.895Z,30.87
2022-11-22T00:17:57.467Z,28.93
2022-11-22T00:20:24.691Z,32.87
2022-11-22T00:22:51.951Z,32.53
2022-11-22T00:25:19.097Z,28.10
2022-11-22T00:27:46.096Z,29.83
2022-11-22T00:30:13.327Z,31.93
2022-11-22T00:32:40.353Z,29.23
2022-11-22T00:35:08.075Z,32.13
2022-11-22T00:37:35.131Z,32.67
2022-11-22T00:40:02.463Z,29.67
2022-11-22T00:42:29.480Z,30.63
2022-11-22T00:44:56.588Z,29.67
2022-11-22T00:47:23.633Z,26.43
2022-11-22T00:49:50.734Z,26.60
2022-11-22T00:52:17.750Z,30.97
2022-11-22T00:54:48.839Z,28.20
2022-11-22T00:57:18.562Z,28.33
2022-11-22T00:59:45.556Z,29.43
2022-11-22T01:02:12.548Z,30.83
2022-11-22T01:04:39.585Z,30.57
2022-11-22T01:07:06.739Z,23.77
2022-11-22T01:09:33.789Z,26.97
2022-11-22T01:12:00.825Z,28.47
2022-11-22T01:14:27.790Z,25.53
2022-11-22T01:16:54.795Z,25.80
2022-11-22T01:19:21.784Z,25.57
2022-11-22T01:21:48.775Z,30.60
2022-11-22T01:24:15.852Z,21.40
2022-11-22T01:26:43.221Z,28.07
2022-11-22T01:29:10.230Z,25.30
2022-11-22T01:31:37.225Z,26.23
2022-11-22T01:34:06.305Z,27.13
2022-11-22T01:36:33.309Z,26.27
2022-11-22T01:39:00.335Z,23.47
2022-11-22T01:41:27.452Z,27.40
2022-11-22T01:43:54.469Z,28.03
2022-11-22T01:46:39.296Z,30.57
2022-11-22T01:49:32.339Z,22.90
2022-11-22T01:52:10.044Z,25.47
2022-11-22T01:54:43.567Z,27.27
2022-11-22T01:57:19.914Z,27.93
2022-11-22T01:59:57.983Z,22.47
2022-11-22T02:02:26.030Z,26.43
2022-11-22T02:04:57.030Z,25.57
2022-11-22T02:07:32.515Z,24.60
2022-11-22T02:09:59.590Z,25.87
2022-11-22T02:12:31.838Z,23.83
2022-11-22T02:14:59.478Z,26.73
2022-11-22T02:17:27.381Z,26.70
2022-11-22T02:19:56.570Z,27.53
2022-11-22T02:23:01.608Z,26.40
2022-11-22T02:25:36.566Z,24.67
2022-11-22T02:28:12.434Z,24.50
2022-11-22T02:30:41.806Z,25.17
2022-11-22T02:33:09.498Z,26.63
2022-11-22T02:35:36.616Z,24.97
2022-11-22T02:38:14.025Z,26.20
2022-11-22T02:41:06.945Z,25.53
2022-11-22T02:43:42.072Z,24.10
2022-11-22T02:46:16.633Z,27.37
2022-11-22T02:48:45.083Z,28.90
2022-11-22T02:51:17.357Z,26.77
2022-11-22T02:53:48.739Z,26.50
2022-11-22T02:56:16.856Z,26.50
2022-11-22T02:58:44.697Z,26.03
2022-11-22T03:01:13.329Z,26.90
2022-11-22T03:03:40.403Z,24.20
2022-11-22T03:06:07.444Z,25.83
2022-11-22T03:08:34.524Z,25.00
2022-11-22T03:11:01.617Z,28.17
2022-11-22T03:13:28.625Z,27.93
2022-11-22T03:15:55.706Z,26.67
2022-11-22T03:18:22.795Z,28.47
2022-11-22T03:20:49.828Z,29.33
2022-11-22T03:23:16.963Z,28.37
2022-11-22T03:25:44.135Z,27.60
2022-11-22T03:28:11.120Z,26.07
2022-11-22T03:30:42.380Z,29.17
2022-11-22T03:33:09.733Z,28.43
2022-11-22T03:35:39.586Z,28.40
2022-11-22T03:38:07.098Z,31.23
2022-11-22T03:40:34.329Z,30.83
2022-11-22T03:43:02.575Z,32.87
2022-11-22T03:45:30.572Z,33.17
2022-11-22T03:47:58.683Z,29.50
2022-11-22T03:50:26.173Z,29.73
2022-11-22T03:52:53.150Z,27.90
2022-11-22T03:55:20.317Z,32.00
2022-11-22T03:57:47.363Z,33.27
2022-11-22T04:00:15.419Z,30.57
2022-11-22T04:02:42.380Z,33.50
2022-11-22T04:05:09.634Z,32.90
2022-11-22T04:07:36.889Z,33.30
2022-11-22T04:10:05.899Z,35.13
2022-11-22T04:12:33.236Z,31.23
2022-11-22T04:15:09.223Z,30.50
2022-11-22T04:17:45.943Z,33.50
2022-11-22T04:20:42.955Z,35.97
2022-11-22T04:23:20.128Z,34.00
2022-11-22T04:25:53.139Z,32.33
2022-11-22T04:29:08.284Z,35.80
2022-11-22T04:31:31.257Z,35.87
2022-11-22T04:33:58.231Z,36.73
2022-11-22T04:36:25.210Z,33.60
2022-11-22T04:38:52.171Z,37.13
2022-11-22T04:41:19.167Z,39.10
2022-11-22T04:44:04.786Z,38.23
2022-11-22T04:46:31.779Z,35.83
2022-11-22T04:48:58.790Z,31.37
2022-11-22T04:51:47.656Z,38.80
2022-11-22T04:54:14.800Z,39.33
2022-11-22T04:56:41.866Z,36.17
2022-11-22T04:59:09.087Z,36.37
2022-11-22T05:01:36.157Z,38.23
2022-11-22T05:04:03.284Z,38.30
2022-11-22T05:06:30.292Z,35.93
2022-11-22T05:08:57.501Z,38.13
2022-11-22T05:11:24.642Z,40.63
2022-11-22T05:13:51.649Z,40.57
2022-11-22T05:16:18.641Z,35.30
2022-11-22T05:18:58.999Z,37.23
2022-11-22T05:21:28.852Z,40.23
2022-11-22T05:23:56.258Z,32.27
2022-11-22T05:26:35.814Z,35.60
2022-11-22T05:29:10.138Z,36.57
2022-11-22T05:31:39.754Z,43.00
2022-11-22T05:34:06.758Z,38.53
2022-11-22T05:36:34.997Z,36.50
2022-11-22T05:39:03.192Z,36.50
2022-11-22T05:41:30.602Z,44.43
2022-11-22T05:44:00.700Z,40.00
2022-11-22T05:46:30.287Z,36.83
2022-11-22T05:48:58.486Z,43.10
2022-11-22T05:51:33.977Z,42.57
2022-11-22T05:54:02.758Z,41.17
2022-11-22T05:56:29.918Z,42.70
2022-11-22T05:58:56.903Z,39.73
2022-11-22T06:01:25.493Z,36.67
2022-11-22T06:03:55.808Z,41.07
2022-11-22T06:06:23.241Z,46.37
2022-11-22T06:08:51.620Z,40.00
2022-11-22T06:11:25.576Z,46.20
2022-11-22T06:13:57.792Z,40.30
2022-11-22T06:16:27.033Z,46.93
2022-11-22T06:18:54.985Z,46.20
2022-11-22T06:21:27.857Z,38.97
2022-11-22T06:23:55.945Z,40.53
2022-11-22T06:26:24.667Z,38.40
2022-11-22T06:28:56.611Z,45.07
2022-11-22T06:31:30.457Z,51.20
2022-11-22T06:34:19.414Z,39.20
2022-11-22T06:36:46.794Z,44.30
2022-11-22T06:39:13.944Z,39.63
2022-11-22T06:41:58.936Z,42.53
2022-11-22T06:44:25.985Z,50.23
2022-11-22T06:46:53.088Z,42.97
2022-11-22T06:49:20.078Z,44.80
2022-11-22T06:51:47.137Z,42.60
2022-11-22T06:54:15.094Z,42.13
2022-11-22T06:56:42.089Z,41.87
2022-11-22T06:59:09.757Z,46.47
2022-11-22T07:01:38.202Z,45.23
2022-11-22T07:04:06.182Z,41.10
2022-11-22T07:06:38.531Z,47.60
2022-11-22T07:09:09.776Z,43.90
2022-11-22T07:11:37.950Z,44.30
2022-11-22T07:14:08.723Z,47.53
2022-11-22T07:16:38.944Z,46.73
2022-11-22T07:19:06.769Z,43.57
2022-11-22T07:21:35.036Z,41.23
2022-11-22T07:24:03.800Z,44.30
2022-11-22T07:26:31.318Z,41.00
2022-11-22T07:29:01.685Z,39.37
2022-11-22T07:31:28.813Z,37.30
2022-11-22T07:34:00.861Z,36.73
2022-11-22T07:36:30.223Z,46.07
2022-11-22T07:38:57.233Z,51.03
2022-11-22T07:41:24.373Z,40.50
2022-11-22T07:43:53.022Z,40.80
2022-11-22T07:46:31.325Z,41.40
2022-11-22T07:49:01.416Z,42.40
2022-11-22T07:51:29.557Z,40.43
2022-11-22T07:53:57.598Z,42.70
2022-11-22T07:56:25.036Z,43.50
2022-11-22T07:58:52.402Z,43.27
2022-11-22T08:01:20.868Z,44.80
2022-11-22T08:03:48.181Z,40.73
2022-11-22T08:06:16.436Z,38.83
2022-11-22T08:08:44.674Z,50.67
2022-11-22T08:11:12.378Z,46.83
2022-11-22T08:13:39.906Z,43.43
2022-11-22T08:16:36.363Z,43.03
2022-11-22T08:19:03.612Z,39.53
2022-11-22T08:21:30.819Z,40.00
2022-11-22T08:24:01.664Z,41.63
2022-11-22T08:26:28.669Z,42.43
2022-11-22T08:28:55.747Z,47.53
2022-11-22T08:31:22.953Z,49.77
2022-11-22T08:33:53.706Z,46.33
2022-11-22T08:36:21.099Z,44.93
2022-11-22T08:38:48.211Z,44.77
2022-11-22T08:41:15.722Z,49.00
2022-11-22T08:43:42.704Z,50.63
2022-11-22T08:46:09.788Z,50.17
2022-11-22T08:48:38.604Z,48.77
2022-11-22T08:51:10.366Z,52.10
2022-11-22T08:53:41.569Z,49.27
2022-11-22T08:56:13.856Z,50.03
2022-11-22T08:58:41.861Z,49.03
2022-11-22T09:01:14.318Z,50.10
2022-11-22T09:03:42.869Z,52.83
2022-11-22T09:11:52.320Z,49.27
2022-11-22T09:14:19.354Z,47.30
2022-11-22T09:16:46.405Z,50.23
2022-11-22T09:19:13.518Z,45.17
2022-11-22T09:21:40.588Z,44.50
2022-11-22T09:24:07.669Z,48.50
2022-11-22T09:26:34.863Z,49.73
2022-11-22T09:29:01.854Z,45.23
2022-11-22T09:31:31.871Z,46.63
2022-11-22T09:33:58.911Z,51.43
2022-11-22T09:36:26.647Z,47.27
2022-11-22T09:38:56.243Z,49.10
2022-11-22T09:42:01.648Z,47.70
2022-11-22T09:45:43.137Z,54.00
2022-11-22T09:48:44.544Z,51.70
2022-11-22T09:51:34.320Z,51.97
2022-11-22T09:54:29.376Z,46.20
2022-11-22T09:57:01.759Z,55.07
2022-11-22T09:59:37.414Z,55.37
2022-11-22T10:02:21.311Z,57.20
2022-11-22T10:05:00.515Z,52.97
2022-11-22T10:07:54.801Z,52.97
2022-11-22T10:10:39.785Z,54.83
2022-11-22T10:13:19.427Z,48.67
2022-11-22T10:15:58.765Z,61.33
2022-11-22T10:18:44.180Z,46.20
2022-11-22T10:21:15.361Z,54.20
2022-11-22T10:23:44.641Z,51.93
2022-11-22T10:26:34.683Z,61.20
2022-11-22T10:29:32.270Z,53.50
2022-11-22T10:32:20.580Z,61.37
2022-11-22T10:35:16.983Z,61.60
2022-11-22T10:38:08.778Z,57.93
2022-11-22T10:41:10.438Z,53.83
2022-11-22T10:44:04.657Z,54.80
2022-11-22T10:47:08.705Z,57.83
2022-11-22T10:50:05.986Z,59.50
2022-11-22T10:53:00.412Z,60.23
2022-11-22T10:56:16.142Z,56.77
2022-11-22T10:59:32.789Z,60.43
2022-11-22T11:02:59.645Z,57.97
2022-11-22T11:06:21.053Z,55.63
2022-11-22T11:11:43.928Z,58.13
2022-11-22T11:14:37.827Z,59.50
2022-11-22T11:17:06.948Z,55.67
2022-11-22T11:19:43.517Z,60.40
2022-11-22T11:22:30.474Z,56.20
2022-11-22T11:25:43.205Z,60.67
2022-11-22T11:28:23.652Z,54.37
2022-11-22T11:31:06.525Z,59.47
2022-11-22T11:33:40.501Z,54.20
2022-11-22T11:36:27.992Z,51.67
2022-11-22T11:38:58.053Z,57.43
2022-11-22T11:41:40.263Z,59.10
2022-11-22T11:44:36.631Z,59.07
2022-11-22T11:47:30.824Z,51.87
2022-11-22T11:49:57.825Z,59.17
2022-11-22T11:52:26.714Z,54.60
2022-11-22T11:55:00.561Z,57.97
2022-11-22T11:57:31.309Z,57.40
2022-11-22T12:00:02.166Z,53.93
2022-11-22T12:02:40.305Z,53.17
2022-11-22T12:05:13.590Z,55.73
2022-11-22T12:07:47.732Z,57.60
2022-11-22T12:11:01.982Z,63.57
2022-11-22T12:14:19.629Z,51.73
2022-11-22T12:17:01.517Z,59.73
2022-11-22T12:19:35.036Z,52.40
2022-11-22T12:22:50.368Z,63.67
2022-11-22T12:25:33.565Z,57.23
2022-11-22T12:28:20.522Z,56.97
2022-11-22T12:30:57.433Z,54.43
2022-11-22T12:33:40.764Z,51.50
2022-11-22T12:36:32.497Z,54.73
2022-11-22T12:39:04.098Z,48.73
2022-11-22T12:41:33.509Z,51.30
2022-11-22T12:44:06.599Z,54.40
2022-11-22T12:46:43.732Z,52.73
2022-11-22T12:49:55.796Z,47.20
2022-11-22T12:52:52.840Z,61.63
2022-11-22T12:55:53.994Z,51.73
2022-11-22T12:58:56.157Z,51.40
2022-11-22T13:01:50.645Z,52.00
2022-11-22T13:04:42.866Z,53.23
2022-11-22T13:07:36.796Z,49.90
2022-11-22T13:10:40.370Z,54.77
2022-11-22T13:13:29.709Z,44.03
2022-11-22T13:16:01.825Z,53.97
2022-11-22T13:18:36.830Z,56.33
2022-11-22T13:21:44.028Z,45.80
2022-11-22T13:25:08.315Z,52.93
2022-11-22T13:27:48.889Z,47.53
2022-11-22T13:30:24.634Z,48.97
2022-11-22T13:32:56.465Z,51.73
2022-11-22T13:35:38.311Z,46.23
2022-11-22T13:38:16.435Z,56.13
2022-11-22T13:41:23.130Z,57.40
2022-11-22T13:43:59.360Z,46.00
2022-11-22T13:46:56.130Z,52.57
2022-11-22T13:49:48.621Z,52.97
2022-11-22T13:52:16.052Z,51.93
2022-11-22T13:55:02.786Z,55.40
2022-11-22T13:57:36.836Z,50.33
2022-11-22T14:00:15.774Z,57.93
2022-11-22T14:03:11.829Z,59.67
2022-11-22T14:05:41.886Z,54.80
2022-11-22T14:08:40.369Z,52.57
2022-11-22T14:11:40.876Z,51.93
2022-11-22T14:14:34.084Z,55.13
2022-11-22T14:17:49.560Z,48.60
2022-11-22T14:20:40.149Z,56.30
2022-11-22T14:24:09.709Z,61.60
2022-11-22T14:26:59.627Z,59.57
2022-11-22T14:29:53.550Z,62.97
2022-11-22T14:32:38.018Z,63.27
2022-11-22T14:35:04.821Z,63.07
2022-11-22T14:37:34.942Z,66.40
2022-11-22T14:40:07.702Z,72.70
2022-11-22T14:42:37.727Z,66.60
2022-11-22T14:45:14.156Z,66.27
2022-11-22T14:48:01.740Z,63.30
2022-11-22T14:50:37.777Z,66.83
2022-11-22T14:53:29.409Z,67.20
2022-11-22T14:56:34.913Z,65.20
2022-11-22T14:59:11.889Z,58.90
2022-11-22T15:02:34.242Z,70.57
2022-11-22T15:09:19.918Z,63.43
2022-11-22T15:09:20.091Z,54.30
2022-11-22T15:12:07.258Z,66.53
2022-11-22T15:57:37.930Z,72.77
2022-11-22T16:00:24.408Z,72.40
2022-11-22T16:03:01.480Z,76.17
2022-11-22T16:06:07.396Z,63.33
2022-11-22T16:08:25.409Z,65.87
2022-11-22T16:10:56.584Z,82.17
2022-11-22T16:13:32.568Z,68.70
2022-11-22T16:16:11.620Z,76.07
2022-11-22T16:18:43.743Z,75.60
2022-11-22T16:21:13.696Z,71.70
2022-11-22T16:23:45.641Z,68.00
2022-11-22T16:26:19.029Z,79.40
2022-11-22T16:28:52.440Z,78.73
2022-11-22T16:31:31.994Z,78.77
2022-11-22T16:33:59.750Z,70.40
2022-11-22T16:36:29.813Z,72.60
2022-11-22T16:38:56.914Z,83.33
2022-11-22T16:41:29.328Z,83.27
2022-11-22T16:44:14.526Z,96.50
2022-11-22T16:46:41.944Z,84.90
2022-11-22T16:49:22.067Z,77.27
2022-11-22T16:51:50.956Z,81.20
2022-11-22T16:54:20.641Z,76.53
2022-11-22T16:56:48.279Z,83.33
2022-11-22T16:59:15.487Z,62.93
2022-11-22T17:01:44.075Z,81.67
2022-11-22T17:04:25.219Z,78.83
2022-11-22T17:06:52.790Z,84.37
2022-11-22T17:09:20.047Z,84.47
2022-11-22T17:11:47.249Z,81.03
2022-11-22T17:14:16.742Z,73.13
2022-11-22T17:16:45.800Z,74.07
2022-11-22T17:19:37.443Z,75.40
2022-11-22T17:22:00.795Z,71.33
2022-11-22T17:24:29.208Z,73.97
2022-11-22T17:26:56.916Z,68.23
2022-11-22T17:32:13.618Z,72.63
2022-11-22T17:34:40.634Z,71.03
2022-11-22T17:37:13.893Z,66.43
2022-11-22T17:39:41.401Z,75.13
2022-11-22T17:42:08.463Z,81.73
2022-11-22T17:44:35.466Z,67.87
2022-11-22T17:47:02.833Z,71.87
2022-11-22T17:49:30.178Z,70.30
2022-11-22T17:51:57.399Z,73.83
2022-11-22T17:54:24.461Z,69.83
2022-11-22T17:56:51.544Z,77.57
2022-11-22T17:59:20.080Z,85.47
2022-11-22T18:01:47.184Z,80.10
2022-11-22T18:04:14.627Z,73.40
2022-11-22T18:06:41.800Z,73.43
2022-11-22T18:09:08.820Z,76.40
2022-11-22T18:11:35.881Z,77.63
2022-11-22T18:14:02.827Z,76.60
2022-11-22T18:16:31.101Z,83.57
2022-11-22T18:19:00.361Z,83.80
2022-11-22T18:21:29.919Z,80.70
2022-11-22T18:23:59.096Z,75.17
2022-11-22T18:26:42.856Z,77.10
2022-11-22T18:32:01.145Z,79.23
2022-11-22T18:34:29.040Z,74.10
2022-11-22T18:37:04.894Z,87.63
2022-11-22T18:39:39.550Z,85.10
2022-11-22T18:42:16.882Z,68.47
2022-11-22T18:44:43.918Z,82.07
2022-11-22T18:47:13.936Z,84.47
2022-11-22T18:49:40.995Z,64.47
2022-11-22T18:52:09.738Z,94.27
2022-11-22T18:54:38.996Z,88.77
2022-11-22T18:57:06.007Z,79.47
2022-11-22T18:59:33.383Z,72.87
2022-11-22T19:02:00.480Z,88.47
2022-11-22T19:04:27.588Z,103.83
2022-11-22T19:06:55.422Z,86.17
2022-11-22T19:09:22.413Z,89.97
2022-11-22T19:11:51.841Z,99.07
2022-11-22T19:14:20.306Z,93.00
2022-11-22T19:16:47.261Z,87.13
2022-11-22T19:19:14.383Z,97.87
2022-11-22T19:21:41.391Z,95.53
2022-11-22T19:24:08.681Z,72.07
2022-11-22T19:26:35.782Z,82.10
2022-11-22T19:29:04.746Z,89.80
2022-11-22T19:31:32.484Z,88.20
2022-11-22T19:34:00.138Z,105.87
2022-11-22T19:36:36.394Z,89.33
2022-11-22T19:39:13.145Z,94.23
2022-11-22T19:41:44.912Z,75.27
2022-11-22T19:44:12.453Z,101.37
2022-11-22T19:46:41.390Z,70.67
2022-11-22T19:49:10.029Z,88.67
2022-11-22T19:51:37.803Z,82.57
2022-11-22T19:54:05.637Z,78.47
2022-11-22T19:56:38.280Z,69.07
2022-11-22T19:59:10.478Z,66.27
2022-11-22T20:01:40.812Z,69.40
2022-11-22T20:04:08.609Z,98.17
2022-11-22T20:06:36.654Z,92.03
2022-11-22T20:09:10.818Z,76.93
2022-11-22T20:11:42.169Z,84.97
2022-11-22T20:14:10.099Z,68.63
2022-11-22T20:16:41.592Z,91.37
2022-11-22T20:19:11.243Z,93.97
2022-11-22T20:21:39.660Z,79.67
2022-11-22T20:24:07.402Z,86.87
2022-11-22T20:26:35.227Z,108.70
2022-11-22T20:29:07.079Z,97.37
2022-11-22T20:31:37.820Z,73.83
2022-11-22T20:34:05.494Z,79.37
2022-11-22T20:36:35.057Z,74.80
2022-11-22T20:39:08.335Z,83.13
2022-11-22T20:41:37.199Z,78.83
2022-11-22T20:44:04.620Z,81.37
2022-11-22T20:46:31.620Z,92.40
2022-11-22T20:48:58.636Z,85.13
2022-11-22T20:51:28.212Z,72.07
2022-11-22T20:53:56.485Z,102.87
2022-11-22T20:56:24.384Z,71.17
2022-11-22T20:58:52.254Z,101.77
2022-11-22T21:01:26.617Z,87.80
2022-11-22T21:03:54.762Z,77.13
2022-11-22T21:06:24.571Z,86.40
2022-11-22T21:08:51.925Z,90.47
2022-11-22T21:11:28.627Z,87.70
2022-11-22T21:13:57.285Z,67.23
2022-11-22T21:16:27.954Z,83.30
2022-11-22T21:19:01.963Z,85.53
2022-11-22T21:21:30.660Z,87.80
2022-11-22T21:24:01.805Z,71.40
2022-11-22T21:26:29.588Z,80.33
2022-11-22T21:28:57.379Z,75.03
2022-11-22T21:31:25.293Z,90.77
2022-11-22T21:33:52.577Z,80.20
2022-11-22T21:36:20.696Z,79.80
2022-11-22T21:38:48.290Z,87.73
2022-11-22T21:44:10.501Z,79.47
2022-11-22T21:46:37.873Z,80.37
2022-11-22T21:49:04.973Z,83.47
2022-11-22T21:51:32.331Z,69.87
2022-11-22T21:54:01.799Z,72.80
2022-11-22T21:56:29.787Z,69.53
2022-11-22T21:58:57.111Z,89.43
2022-11-22T22:01:24.782Z,83.40
2022-11-22T22:03:52.600Z,60.00
2022-11-22T22:06:20.110Z,104.10
2022-11-22T22:08:47.297Z,94.43
2022-11-22T22:11:14.644Z,90.23
2022-11-22T22:13:41.652Z,93.53
2022-11-22T22:16:15.265Z,82.30
2022-11-22T22:18:43.302Z,89.70
2022-11-22T22:21:12.891Z,95.90
2022-11-22T22:23:41.920Z,97.43
2022-11-22T22:26:13.562Z,88.27
2022-11-22T22:28:41.252Z,107.53
2022-11-22T22:31:17.122Z,98.50
2022-11-22T22:33:45.613Z,97.67
2022-11-22T22:36:13.313Z,91.87
2022-11-22T22:38:40.819Z,101.43
2022-11-22T22:41:13.538Z,85.10
2022-11-22T22:43:45.197Z,109.00
2022-11-22T22:46:24.751Z,90.97
2022-11-22T22:48:53.307Z,79.13
2022-11-22T22:51:31.651Z,97.43
2022-11-22T22:54:00.490Z,86.50
2022-11-22T22:56:30.468Z,95.13
2022-11-22T22:59:00.756Z,83.73
2022-11-22T23:01:31.299Z,88.40
2022-11-22T23:04:00.947Z,75.70
2022-11-22T23:06:35.477Z,94.83
2022-11-22T23:09:08.885Z,75.20
2022-11-22T23:11:55.675Z,104.53
2022-11-22T23:14:29.948Z,96.73
2022-11-22T23:16:58.185Z,81.43
2022-11-22T23:19:26.924Z,91.23
2022-11-22T23:21:55.100Z,76.13
2022-11-22T23:24:22.051Z,99.87
2022-11-22T23:26:49.102Z,107.30
2022-11-22T23:29:16.203Z,101.77
2022-11-22T23:31:43.210Z,95.93
2022-11-22T23:34:11.833Z,97.30
2022-11-22T23:36:41.004Z,91.60
2022-11-22T23:39:09.382Z,117.03
2022-11-22T23:41:36.555Z,121.20
2022-11-22T23:44:03.752Z,114.30
2022-11-22T23:46:30.818Z,101.17
2022-11-22T23:49:01.151Z,109.30
2022-11-22T23:51:31.313Z,101.83
2022-11-22T23:54:03.111Z,108.30
2022-11-22T23:56:32.932Z,92.97
2022-11-22T23:59:01.439Z,68.80
